X  Zatvori METAR podaci zračne luke     LDPL Pula Airport
Temperatura
19°C Temperatura
11°C Točka rosišta
60% Vlaga



Vjetar
2 MPS
3 KM/S
1 M/S
2 Čvorovi



Tišina
S
Trenutna situacija

Vedro Vedro
Tlak zraka 1018.92 (hPa) - 30.09 (inHg)
Vidljivost 6.2 (milje) - 10 (km)
Zračna luka
Kôd zračne luke LDPL

Lokacija: Pula Airport
Udaljenost: 39 (mi)

Metar:
LDPL 262230Z VRB02KT CAVOK 19/11 Q1019

Vrijeme: 27-05-2022 00:30 CEST